LIRE

Pratica Di Mare Airport

Pomezia, Italy
TAF LIRE 192000Z 1921/2006 20015KT 9999 SCT020 BKN040 TEMPO 1921/2002 20016G26KT 5000 TSRA FEW020CB BKN020
Issued Valid From Valid To
Nov-19 @ 20:00 UTC
(2 hours ago)
Nov-19 @ 21:00 UTC
(an hour ago)
Nov-20 @ 06:00 UTC
(in 8 hours)
Nov-19 @ 21:00 to Nov-20 @ 06:00
TAF LIRE 192000Z 1921/2006 20015KT 9999 SCT020 BKN040
Wind Visibility Clouds
200° at 15 knots 10,000+ meters
  • Scattered at 2,000' AGL
  • Broken at 4,000' AGL
Temporary Nov-19 @ 21:00 to Nov-20 @ 02:00
TEMPO 1921/2002 20016G26KT 5000 TSRA FEW020CB BKN020
Wind Visibility Clouds Conditions
200° at 16 knots
 Gusting to 26 knots
5,005 meters
  • Few at 2,000' AGL
  • Broken at 2,000' AGL
  • Thunderstorm
  • Rain
TAF LIRE 192000Z 1921/2006 20015KT 9999 SCT020 BKN040 TEMPO 1921/2002 20016G26KT 5000 TSRA FEW020CB BKN020
Issued Nov-19 @ 20:00 UTC
(2 hours ago)
Valid From Nov-19 @ 21:00 UTC
(an hour ago)
Valid To Nov-20 @ 06:00 UTC
(in 8 hours)
Nov-19 @ 21:00 - Nov-20 @ 06:00
Wind Visibility
200° at 15 knots 10,000+ meters
Clouds
  • Scattered at 2,000' AGL
  • Broken at 4,000' AGL
Temporary Nov-19 @ 21:00 - Nov-20 @ 02:00
Wind Visibility
200° at 16 knots
 Gusting to 26 knots
5,005 meters
Clouds
  • Few at 2,000' AGL
  • Broken at 2,000' AGL
Conditions
  • Thunderstorm
  • Rain